Time;durP1;ratioP1;P1;durP2;ratioP2;P2;SDS_P1;SDS_P2;PMS_P1;PMS_P2;Temp;Humidity;BMP_temperature;BMP_pressure;BME280_temperature;BME280_humidity;BME280_pressure;Samples;Min_cycle;Max_cycle;Signal;HPM_P1;HPM_P2
2023/04/02 00:17:53;;;;;;;0.10;0.10;;;;;;;;;;4942953;29;20489;-91
2023/04/02 00:20:19;;;;;;;0.10;0.10;;;5.00;99.90;;;;;;4946131;28;20036;-92
2023/04/02 00:22:45;;;;;;;0.05;0.05;;;;;;;;;;4959014;28;20130;-89
2023/04/02 00:25:12;;;;;;;0.10;0.10;;;5.10;99.90;;;;;;4947888;28;20038;-90
2023/04/02 00:27:39;;;;;;;0.10;0.10;;;;;;;;;;4929153;29;20499;-91
2023/04/02 00:30:05;;;;;;;0.10;0.10;;;5.00;99.90;;;;;;4929981;29;20035;-91
2023/04/02 00:32:33;;;;;;;0.10;0.10;;;5.00;99.90;;;;;;4929595;29;20502;-91
2023/04/02 00:35:00;;;;;;;0.10;0.10;;;;;;;;;;4929505;29;20063;-90
2023/04/02 00:37:37;;;;;;;0.10;0.10;;;5.10;99.90;;;;;;4928757;29;20097;-90
2023/04/02 00:40:24;;;;;;;0.10;0.10;;;5.00;99.90;;;;;;4928378;29;20573;-90
2023/04/02 00:42:52;;;;;;;0.08;0.08;;;5.00;99.90;;;;;;4929985;29;20042;-90
2023/04/02 00:45:29;;;;;;;0.10;0.10;;;4.80;99.90;;;;;;4956497;28;20506;-89
2023/04/02 00:47:57;;;;;;;0.10;0.10;;;5.00;99.90;;;;;;4946750;29;20062;-90
2023/04/02 00:50:38;;;;;;;0.10;0.10;;;4.90;99.90;;;;;;4927753;29;20032;-92
2023/04/02 00:53:09;;;;;;;0.00;0.00;;;4.80;99.90;;;;;;4927866;29;20656;-89
2023/04/02 00:55:40;;;;;;;0.00;0.00;;;4.80;99.90;;;;;;4947775;29;20518;-90
2023/04/02 00:58:18;;;;;;;0.10;0.10;;;4.90;99.90;;;;;;4927854;29;20525;-90
2023/04/02 01:00:49;;;;;;;0.10;0.10;;;4.90;99.90;;;;;;4942625;29;20478;-90
2023/04/02 01:03:18;;;;;;;0.10;0.10;;;4.80;99.90;;;;;;4934973;29;20027;-90
2023/04/02 01:05:50;;;;;;;0.10;0.10;;;4.70;99.90;;;;;;4927140;29;20450;-91
2023/04/02 01:08:16;;;;;;;0.10;0.10;;;;;;;;;;4925787;29;20118;-91
2023/04/02 01:11:00;;;;;;;0.10;0.10;;;4.70;99.90;;;;;;4919014;29;20414;-91
2023/04/02 01:13:26;;;;;;;0.10;0.10;;;;;;;;;;4930104;29;20068;-90
2023/04/02 01:16:05;;;;;;;0.10;0.10;;;4.40;99.90;;;;;;4956781;28;20035;-90
2023/04/02 01:18:36;;;;;;;0.10;0.10;;;4.30;99.90;;;;;;4928498;29;20372;-90
2023/04/02 01:21:09;;;;;;;0.10;0.10;;;4.30;99.90;;;;;;4929760;29;20087;-91
2023/04/02 01:23:59;;;;;;;0.10;0.10;;;4.30;99.90;;;;;;4925178;29;20032;-91
2023/04/02 01:26:46;;;;;;;0.10;0.10;;;4.40;99.90;;;;;;4932161;29;20562;-90
2023/04/02 01:29:17;;;;;;;0.00;0.00;;;4.30;99.90;;;;;;4945096;28;20063;-90
2023/04/02 01:31:44;;;;;;;0.10;0.10;;;4.30;99.90;;;;;;4930781;29;20514;-91
2023/04/02 01:34:14;;;;;;;0.10;0.10;;;4.20;99.90;;;;;;4926134;29;20633;-87
2023/04/02 01:37:21;;;;;;;0.10;0.10;;;4.20;99.90;;;;;;4928787;29;20042;-91
2023/04/02 01:40:05;;;;;;;0.10;0.10;;;4.20;99.90;;;;;;4927850;29;20334;-90
2023/04/02 01:42:31;;;;;;;0.10;0.10;;;;;;;;;;4930193;29;20075;-90
2023/04/02 01:45:07;;;;;;;0.10;0.10;;;4.10;99.90;;;;;;4925853;29;20415;-91
2023/04/02 01:47:33;;;;;;;0.10;0.10;;;;;;;;;;4927965;29;20463;-91
2023/04/02 01:50:03;;;;;;;0.10;0.10;;;4.20;99.90;;;;;;4926618;29;20035;-91
2023/04/02 01:52:41;;;;;;;0.00;0.00;;;4.30;99.90;;;;;;4943294;28;20031;-91
2023/04/02 01:55:11;;;;;;;0.10;0.10;;;4.30;99.90;;;;;;4943208;28;20096;-90
2023/04/02 01:57:40;;;;;;;0.10;0.10;;;4.20;99.90;;;;;;4927863;29;20621;-93
2023/04/02 02:00:11;;;;;;;0.10;0.10;;;4.00;99.90;;;;;;4927367;29;20051;-91
2023/04/02 02:02:37;;;;;;;0.10;0.10;;;;;;;;;;4928115;29;20063;-91
2023/04/02 02:05:03;;;;;;;0.10;0.10;;;4.30;99.90;;;;;;4925808;29;20070;-91
2023/04/02 02:07:29;;;;;;;0.10;0.10;;;;;;;;;;4927494;29;20028;-89
2023/04/02 02:09:55;;;;;;;0.10;0.10;;;;;;;;;;4959646;28;20047;-90
2023/04/02 02:12:21;;;;;;;0.10;0.10;;;;;;;;;;4960010;28;20028;-90
2023/04/02 02:14:51;;;;;;;0.10;0.10;;;4.30;99.90;;;;;;4959100;28;20032;-91
2023/04/02 02:17:22;;;;;;;0.10;0.10;;;4.10;99.90;;;;;;4957766;28;20032;-91
2023/04/02 02:19:53;;;;;;;0.10;0.10;;;4.00;99.90;;;;;;4928155;29;20518;-90
2023/04/02 02:22:28;;;;;;;0.10;0.10;;;4.00;99.90;;;;;;4927403;29;20534;-90
2023/04/02 02:24:55;;;;;;;0.10;0.10;;;4.00;99.90;;;;;;4929651;29;20126;-89
2023/04/02 02:27:26;;;;;;;0.10;0.10;;;;;;;;;;4928573;29;20025;-90
2023/04/02 02:30:14;;;;;;;0.10;0.10;;;4.00;99.90;;;;;;4928505;29;20042;-90
2023/04/02 02:32:51;;;;;;;0.00;0.00;;;4.00;99.90;;;;;;4927998;29;20040;-92
2023/04/02 02:35:48;;;;;;;0.10;0.10;;;4.00;99.90;;;;;;4926160;29;20040;-91
2023/04/02 02:38:14;;;;;;;0.10;0.10;;;4.00;99.90;;;;;;4926447;29;20498;-90
2023/04/02 02:40:44;;;;;;;0.10;0.10;;;3.80;99.90;;;;;;4930773;29;20039;-90
2023/04/02 02:43:12;;;;;;;0.03;0.03;;;3.80;99.90;;;;;;4933170;29;20036;-90
2023/04/02 02:45:40;;;;;;;0.10;0.10;;;3.70;99.90;;;;;;4930608;29;20040;-91
2023/04/02 02:48:11;;;;;;;0.00;0.00;;;3.80;99.90;;;;;;4961817;28;20044;-91
2023/04/02 02:50:37;;;;;;;0.10;0.10;;;3.80;99.90;;;;;;4960836;28;20507;-91
2023/04/02 02:53:10;;;;;;;0.10;0.10;;;3.70;99.90;;;;;;4932536;29;20090;-91
2023/04/02 02:55:37;;;;;;;0.10;0.10;;;;;;;;;;4933333;29;20040;-90
2023/04/02 02:58:07;;;;;;;0.10;0.10;;;3.80;99.90;;;;;;4932354;29;20399;-92
2023/04/02 03:00:34;;;;;;;0.10;0.10;;;3.90;99.90;;;;;;4928531;29;20031;-89
2023/04/02 03:03:04;;;;;;;0.10;0.10;;;3.90;99.90;;;;;;4960561;28;20062;-90
2023/04/02 03:05:30;;;;;;;0.13;0.13;;;;;;;;;;4930785;29;20072;-91
2023/04/02 03:07:58;;;;;;;0.10;0.10;;;4.00;99.90;;;;;;4947283;29;20521;-90
2023/04/02 03:10:35;;;;;;;0.10;0.10;;;3.90;99.90;;;;;;4931446;29;20032;-91
2023/04/02 03:13:18;;;;;;;0.10;0.10;;;3.90;99.90;;;;;;4933180;29;20027;-90
2023/04/02 03:22:06;;;;;;;0.10;0.10;;;3.70;99.90;;;;;;4976194;23;20119;-90
2023/04/02 03:24:55;;;;;;;0.10;0.10;;;3.70;99.90;;;;;;4931195;29;20036;-91
2023/04/02 03:27:37;;;;;;;0.10;0.10;;;3.70;99.90;;;;;;4929393;29;20116;-90
2023/04/02 03:30:25;;;;;;;0.10;0.10;;;3.80;99.90;;;;;;4931452;29;20028;-90
2023/04/02 03:32:57;;;;;;;0.10;0.10;;;3.70;99.90;;;;;;4931360;29;20080;-90
2023/04/02 03:38:42;;;;;;;0.10;0.10;;;3.60;99.90;;;;;;5204668;23;20426;-91
2023/04/02 03:41:23;;;;;;;0.10;0.10;;;3.50;99.90;;;;;;4932058;29;20267;-90
2023/04/02 03:43:53;;;;;;;0.10;0.10;;;3.50;99.90;;;;;;4937281;29;20028;-90
2023/04/02 03:49:35;;;;;;;0.10;0.10;;;3.50;99.90;;;;;;4940068;29;20305;-92
2023/04/02 03:52:07;;;;;;;0.10;0.10;;;3.40;99.90;;;;;;4932244;29;20082;-91
2023/04/02 03:54:36;;;;;;;0.00;0.00;;;3.60;99.90;;;;;;4932413;29;20118;-90
2023/04/02 03:57:02;;;;;;;0.10;0.10;;;;;;;;;;4933598;29;20498;-90
2023/04/02 03:59:53;;;;;;;0.10;0.10;;;3.50;99.90;;;;;;4936317;29;20130;-90
2023/04/02 04:05:38;;;;;;;0.10;0.10;;;3.40;99.90;;;;;;4951602;29;20526;-90
2023/04/02 04:11:31;;;;;;;0.10;0.10;;;3.40;99.90;;;;;;4942249;29;20039;-89
2023/04/02 04:14:17;;;;;;;0.10;0.10;;;3.40;99.90;;;;;;5183541;23;20047;-90
2023/04/02 04:23:09;;;;;;;0.00;0.00;;;3.30;99.90;;;;;;4994738;23;20174;-90
2023/04/02 04:25:35;;;;;;;0.10;0.10;;;;;;;;;;4927443;29;20035;-89
2023/04/02 04:28:23;;;;;;;0.10;0.10;;;3.30;99.90;;;;;;4928806;29;20103;-90
2023/04/02 04:33:49;;;;;;;0.00;0.00;;;3.30;99.90;;;;;;5218936;23;20450;-89
2023/04/02 04:36:53;;;;;;;0.10;0.10;;;3.30;99.90;;;;;;4960659;28;20028;-90
2023/04/02 04:39:47;;;;;;;0.00;0.00;;;3.30;99.90;;;;;;4961410;28;20039;-89
2023/04/02 04:42:21;;;;;;;0.10;0.10;;;3.40;99.90;;;;;;4947468;28;20063;-89
2023/04/02 04:44:58;;;;;;;0.10;0.10;;;3.20;99.90;;;;;;4960940;28;20027;-91
2023/04/02 04:47:47;;;;;;;0.00;0.00;;;3.50;99.90;;;;;;4944643;28;20031;-90
2023/04/02 04:50:31;;;;;;;0.10;0.10;;;3.50;99.90;;;;;;4963701;28;20091;-91
2023/04/02 04:52:57;;;;;;;0.00;0.00;;;;;;;;;;4949069;28;20034;-89
2023/04/02 04:55:34;;;;;;;0.10;0.10;;;3.60;99.90;;;;;;4949604;28;20027;-90
2023/04/02 04:58:22;;;;;;;0.10;0.10;;;3.60;99.90;;;;;;4941206;28;20039;-92
2023/04/02 05:00:48;;;;;;;0.00;0.00;;;;;;;;;;4939766;29;20063;-90
2023/04/02 05:03:36;;;;;;;0.10;0.10;;;3.70;99.90;;;;;;4948817;29;20054;-90
2023/04/02 05:06:14;;;;;;;0.10;0.10;;;3.60;99.90;;;;;;4941584;28;20217;-90
2023/04/02 05:08:46;;;;;;;0.10;0.10;;;3.60;99.90;;;;;;4948544;28;20151;-91
2023/04/02 05:11:27;;;;;;;0.10;0.10;;;3.70;99.90;;;;;;4940863;28;20042;-91
2023/04/02 05:13:59;;;;;;;0.10;0.10;;;3.70;99.90;;;;;;4947798;28;20610;-89
2023/04/02 05:16:50;;;;;;;0.10;0.10;;;3.80;99.90;;;;;;4945360;28;20410;-90
2023/04/02 05:19:26;;;;;;;0.00;0.00;;;3.80;99.90;;;;;;4950667;28;20039;-91
2023/04/02 05:22:19;;;;;;;0.10;0.10;;;3.80;99.90;;;;;;4960583;28;20027;-92
2023/04/02 05:25:11;;;;;;;0.10;0.10;;;3.70;99.90;;;;;;4940580;28;20057;-91
2023/04/02 05:27:52;;;;;;;0.10;0.10;;;3.70;99.90;;;;;;4945180;28;20031;-91
2023/04/02 05:30:23;;;;;;;0.10;0.10;;;3.70;99.90;;;;;;4959122;28;20463;-90
2023/04/02 05:32:56;;;;;;;0.08;0.08;;;3.70;99.90;;;;;;4963540;28;20525;-92
2023/04/02 05:35:26;;;;;;;0.10;0.10;;;3.60;99.90;;;;;;4946867;29;20024;-90
2023/04/02 05:37:52;;;;;;;0.10;0.10;;;;;;;;;;4942446;29;20409;-91
2023/04/02 05:40:26;;;;;;;0.10;0.10;;;3.60;99.90;;;;;;4959197;28;20077;-90
2023/04/02 05:42:52;;;;;;;0.10;0.10;;;;;;;;;;4950905;28;20070;-92
2023/04/02 05:45:33;;;;;;;0.10;0.10;;;3.60;99.90;;;;;;4962059;28;20118;-91
2023/04/02 05:48:03;;;;;;;0.00;0.00;;;3.70;99.90;;;;;;4948368;28;20118;-90
2023/04/02 05:50:36;;;;;;;0.10;0.10;;;3.80;99.90;;;;;;4961171;28;20067;-90
2023/04/02 05:53:11;;;;;;;0.10;0.10;;;3.90;99.90;;;;;;4949306;28;20043;-90
2023/04/02 05:55:49;;;;;;;0.10;0.10;;;3.80;99.90;;;;;;4948399;28;20031;-90
2023/04/02 05:58:43;;;;;;;0.10;0.10;;;3.80;99.90;;;;;;4959240;28;20027;-92
2023/04/02 06:01:24;;;;;;;0.00;0.00;;;3.80;99.90;;;;;;4947022;29;20038;-90
2023/04/02 06:04:02;;;;;;;0.10;0.10;;;3.80;99.90;;;;;;4947833;28;20020;-90
2023/04/02 06:06:43;;;;;;;0.10;0.10;;;3.80;99.90;;;;;;4947141;29;20474;-90
2023/04/02 06:09:22;;;;;;;0.10;0.10;;;3.80;99.90;;;;;;4961843;28;20157;-91
2023/04/02 06:11:58;;;;;;;0.10;0.10;;;3.70;99.90;;;;;;4947215;29;20054;-91
2023/04/02 06:14:24;;;;;;;0.10;0.10;;;;;;;;;;4945555;29;20027;-91
2023/04/02 06:16:50;;;;;;;0.10;0.10;;;;;;;;;;4943245;28;20050;-90
2023/04/02 06:19:24;;;;;;;0.10;0.10;;;3.70;99.90;;;;;;4948692;28;20478;-92
2023/04/02 06:21:52;;;;;;;0.10;0.10;;;3.70;99.90;;;;;;4946579;28;20565;-90
2023/04/02 06:24:23;;;;;;;0.00;0.00;;;3.90;99.90;;;;;;4962812;28;20047;-91
2023/04/02 06:27:05;;;;;;;0.10;0.10;;;3.90;99.90;;;;;;4950386;28;20047;-90
2023/04/02 06:29:38;;;;;;;0.10;0.10;;;4.00;99.90;;;;;;4963309;28;20043;-90
2023/04/02 06:32:06;;;;;;;0.10;0.10;;;4.10;99.90;;;;;;4944041;28;20488;-92
2023/04/02 06:34:32;;;;;;;0.10;0.10;;;;;;;;;;4964315;28;20031;-92
2023/04/02 06:37:02;;;;;;;0.00;0.00;;;4.10;99.90;;;;;;4950988;28;20043;-91
2023/04/02 06:39:28;;;;;;;0.10;0.10;;;;;;;;;;4943702;28;20102;-91
2023/04/02 06:42:02;;;;;;;0.10;0.10;;;4.00;99.90;;;;;;4951312;28;20490;-89
2023/04/02 06:44:32;;;;;;;0.10;0.10;;;4.00;99.90;;;;;;4951198;28;20063;-90
2023/04/02 06:47:01;;;;;;;;;;;5.50;99.90;;;;;;4947757;28;20401;-93
2023/04/02 06:49:51;;;;;;;0.10;0.10;;;3.90;99.90;;;;;;4939111;28;19933;-91
2023/04/02 06:52:39;;;;;;;0.10;0.10;;;3.90;99.90;;;;;;4946690;29;20032;-90
2023/04/02 06:55:25;;;;;;;0.10;0.10;;;3.80;99.90;;;;;;4948264;28;20315;-90
2023/04/02 06:57:51;;;;;;;0.10;0.10;;;;;;;;;;4952908;28;20490;-89
2023/04/02 07:00:34;;;;;;;0.00;0.00;;;3.80;99.90;;;;;;4943186;28;20023;-91
2023/04/02 07:03:02;;;;;;;0.10;0.10;;;3.90;99.90;;;;;;4939986;28;20420;-90
2023/04/02 07:05:29;;;;;;;0.10;0.10;;;;;;;;;;4958981;28;20479;-90
2023/04/02 07:07:55;;;;;;;0.10;0.10;;;;;;;;;;4942700;28;20082;-90
2023/04/02 07:10:21;;;;;;;0.10;0.10;;;;;;;;;;4950226;28;20074;-90
2023/04/02 07:12:47;;;;;;;0.10;0.10;;;;;;;;;;4944296;28;20035;-90
2023/04/02 07:15:18;;;;;;;0.08;0.08;;;4.10;99.90;;;;;;4951090;28;20078;-90
2023/04/02 07:17:44;;;;;;;0.00;0.00;;;;;;;;;;4942573;29;20043;-92
2023/04/02 07:20:36;;;;;;;0.10;0.10;;;4.20;99.90;;;;;;4950069;28;20462;-92
2023/04/02 07:23:03;;;;;;;0.10;0.10;;;4.10;99.90;;;;;;4954620;28;20252;-91
2023/04/02 07:25:29;;;;;;;0.10;0.10;;;;;;;;;;4949631;29;20027;-90
2023/04/02 07:27:55;;;;;;;0.10;0.10;;;4.10;99.90;;;;;;4950771;28;20062;-91
2023/04/02 07:30:21;;;;;;;0.05;0.05;;;;;;;;;;4952232;28;20085;-90
2023/04/02 07:32:47;;;;;;;0.10;0.10;;;;;;;;;;4953942;28;20031;-90
2023/04/02 07:35:13;;;;;;;0.10;0.10;;;;;;;;;;4948703;28;20082;-90
2023/04/02 07:37:39;;;;;;;0.10;0.10;;;;;;;;;;4952896;28;20032;-91
2023/04/02 07:40:13;;;;;;;0.00;0.00;;;4.20;99.90;;;;;;4950202;28;20381;-90
2023/04/02 07:42:39;;;;;;;0.10;0.10;;;;;;;;;;4950768;29;20028;-90
2023/04/02 07:45:05;;;;;;;0.10;0.10;;;;;;;;;;4952926;28;20027;-90
2023/04/02 07:47:31;;;;;;;0.10;0.10;;;;;;;;;;4950217;28;20046;-91
2023/04/02 07:49:57;;;;;;;0.10;0.10;;;;;;;;;;4950801;28;20038;-92
2023/04/02 07:52:23;;;;;;;0.10;0.10;;;;;;;;;;4948051;28;20054;-90
2023/04/02 07:54:50;;;;;;;0.00;0.00;;;;;;;;;;4946851;29;20060;-90
2023/04/02 07:57:16;;;;;;;0.10;0.10;;;;;;;;;;4948727;29;20050;-92
2023/04/02 07:59:41;;;;;;;0.10;0.10;;;;;;;;;;4953137;28;20455;-90
2023/04/02 08:02:18;;;;;;;0.10;0.10;;;4.70;99.90;;;;;;4945159;28;20271;-90
2023/04/02 08:04:44;;;;;;;0.10;0.10;;;;;;;;;;4943051;29;20071;-90
2023/04/02 08:07:10;;;;;;;0.10;0.10;;;;;;;;;;4948399;29;20439;-90
2023/04/02 08:09:36;;;;;;;0.10;0.10;;;;;;;;;;4949369;28;20046;-90
2023/04/02 08:12:02;;;;;;;0.00;0.00;;;;;;;;;;4943529;28;20047;-90
2023/04/02 08:14:28;;;;;;;0.10;0.10;;;;;;;;;;4949782;28;20042;-91
2023/04/02 08:16:54;;;;;;;0.10;0.10;;;5.00;99.90;;;;;;4951540;28;20042;-90
2023/04/02 08:19:21;;;;;;;0.10;0.10;;;;;;;;;;4953537;28;20310;-90
2023/04/02 08:21:49;;;;;;;0.10;0.10;;;5.20;99.90;;;;;;4954072;28;20606;-92
2023/04/02 08:24:17;;;;;;;0.03;0.03;;;5.30;99.90;;;;;;4950015;28;20062;-91
2023/04/02 08:26:44;;;;;;;0.10;0.10;;;;;;;;;;4947917;29;20122;-91
2023/04/02 08:29:09;;;;;;;0.10;0.10;;;;;;;;;;4949649;29;20027;-90
2023/04/02 08:31:36;;;;;;;0.10;0.10;;;;;;;;;;4949476;28;20490;-91
2023/04/02 08:34:02;;;;;;;0.10;0.10;;;;;;;;;;4946288;28;20544;-92
2023/04/02 08:36:36;;;;;;;0.10;0.10;;;5.30;99.90;;;;;;4951295;29;20027;-88
2023/04/02 08:39:03;;;;;;;0.10;0.10;;;5.30;99.90;;;;;;4948890;28;20247;-88
2023/04/02 08:41:34;;;;;;;0.10;0.10;;;5.30;99.90;;;;;;4950878;28;20015;-88
2023/04/02 08:44:26;;;;;;;0.10;0.10;;;5.20;99.90;;;;;;4953130;28;20087;-90
2023/04/02 08:47:01;;;;;;;0.08;0.08;;;5.40;99.90;;;;;;4948294;29;20082;-90
2023/04/02 08:49:43;;;;;;;0.03;0.03;;;5.30;99.90;;;;;;4947200;29;20023;-88
2023/04/02 08:52:27;;;;;;;0.10;0.10;;;5.40;99.90;;;;;;4965328;28;20031;-88
2023/04/02 08:54:55;;;;;;;0.00;0.00;;;;;;;;;;4951384;29;20059;-89
2023/04/02 08:57:36;;;;;;;0.10;0.10;;;5.50;99.90;;;;;;4951116;28;20031;-89
2023/04/02 09:00:09;;;;;;;0.10;0.10;;;5.70;99.90;;;;;;4947947;29;20403;-89
2023/04/02 09:02:42;;;;;;;0.10;0.10;;;5.90;99.90;;;;;;4946532;28;20064;-89
2023/04/02 09:05:17;;;;;;;0.10;0.10;;;5.90;99.90;;;;;;4944754;29;20038;-88
2023/04/02 09:07:43;;;;;;;0.10;0.10;;;5.90;99.90;;;;;;4950993;29;20114;-89
2023/04/02 09:10:16;;;;;;;0.05;0.05;;;6.00;99.90;;;;;;4952784;28;20068;-88
2023/04/02 09:12:48;;;;;;;0.10;0.10;;;5.90;99.90;;;;;;4935101;29;20482;-89
2023/04/02 09:15:15;;;;;;;0.10;0.10;;;;;;;;;;4950636;29;20031;-89
2023/04/02 09:17:41;;;;;;;0.10;0.10;;;;;;;;;;4949411;28;20074;-88
2023/04/02 09:20:16;;;;;;;0.00;0.00;;;5.90;99.90;;;;;;4951901;28;20031;-89
2023/04/02 09:22:44;;;;;;;0.10;0.10;;;6.00;99.90;;;;;;4966116;28;20052;-88
2023/04/02 09:25:26;;;;;;;0.10;0.10;;;6.10;99.90;;;;;;4961565;28;20081;-88
2023/04/02 09:27:54;;;;;;;0.10;0.10;;;6.10;99.90;;;;;;4962558;28;20028;-88
2023/04/02 09:30:59;;;;;;;0.10;0.10;;;6.10;99.90;;;;;;4949716;29;20031;-88
2023/04/02 09:33:45;;;;;;;0.10;0.10;;;6.20;99.90;;;;;;4915558;29;23018;-89
2023/04/02 09:36:39;;;;;;;0.10;0.10;;;6.20;99.90;;;;;;4962542;28;20083;-88
2023/04/02 09:39:25;;;;;;;0.08;0.08;;;6.20;99.90;;;;;;4949420;28;20086;-88
2023/04/02 09:41:51;;;;;;;0.10;0.10;;;;;;;;;;4949248;28;20036;-88
2023/04/02 09:44:20;;;;;;;0.10;0.10;;;6.40;99.90;;;;;;4949861;28;20039;-88
2023/04/02 09:46:48;;;;;;;0.10;0.10;;;6.40;99.90;;;;;;4948935;29;20299;-88
2023/04/02 09:49:16;;;;;;;0.10;0.10;;;6.50;99.90;;;;;;4947100;29;20566;-88
2023/04/02 09:51:42;;;;;;;0.10;0.10;;;;;;;;;;4950055;28;20494;-91
2023/04/02 09:54:14;;;;;;;0.10;0.10;;;6.60;99.90;;;;;;4946773;28;20214;-90
2023/04/02 09:56:57;;;;;;;0.10;0.10;;;6.60;99.90;;;;;;4947197;29;20031;-89
2023/04/02 09:59:23;;;;;;;0.10;0.10;;;;;;;;;;4948028;29;20061;-90
2023/04/02 10:01:54;;;;;;;0.10;0.10;;;6.80;99.90;;;;;;4955370;28;20019;-89
2023/04/02 10:04:29;;;;;;;0.10;0.10;;;6.70;99.90;;;;;;4955213;28;20026;-88
2023/04/02 10:06:56;;;;;;;0.10;0.10;;;;;;;;;;4966948;28;20027;-89
2023/04/02 10:09:31;;;;;;;0.10;0.10;;;6.70;99.90;;;;;;4949155;29;20038;-90
2023/04/02 10:11:59;;;;;;;0.10;0.10;;;6.60;99.90;;;;;;4950361;28;20031;-90
2023/04/02 10:14:31;;;;;;;0.10;0.10;;;6.60;99.90;;;;;;4949446;28;20039;-90
2023/04/02 10:17:02;;;;;;;0.10;0.10;;;6.80;99.90;;;;;;4950025;29;20031;-90
2023/04/02 10:19:41;;;;;;;0.10;0.10;;;6.70;99.90;;;;;;4950879;28;20035;-92
2023/04/02 10:22:14;;;;;;;0.10;0.10;;;6.60;99.90;;;;;;4949302;28;20110;-88
2023/04/02 10:24:40;;;;;;;0.10;0.10;;;;;;;;;;4950574;28;20034;-91
2023/04/02 10:27:24;;;;;;;0.10;0.10;;;6.70;99.90;;;;;;4951269;28;20027;-91
2023/04/02 10:30:17;;;;;;;0.10;0.10;;;6.80;99.90;;;;;;4945177;29;20070;-90
2023/04/02 10:32:49;;;;;;;0.10;0.10;;;6.80;99.90;;;;;;4938512;28;20035;-90
2023/04/02 10:35:41;;;;;;;0.10;0.10;;;6.80;99.90;;;;;;4947309;28;20023;-88
2023/04/02 10:38:30;;;;;;;0.10;0.10;;;6.60;99.90;;;;;;4944992;28;20039;-90
2023/04/02 10:41:20;;;;;;;0.10;0.10;;;6.70;99.90;;;;;;4945214;28;20027;-88
2023/04/02 10:44:01;;;;;;;0.10;0.10;;;6.60;99.90;;;;;;4962697;28;20367;-89
2023/04/02 10:46:38;;;;;;;0.10;0.10;;;6.80;99.90;;;;;;4950848;29;20028;-88
2023/04/02 10:49:04;;;;;;;0.10;0.10;;;;;;;;;;4955579;28;20023;-89
2023/04/02 10:51:49;;;;;;;0.10;0.10;;;7.10;99.90;;;;;;4951819;28;20027;-89
2023/04/02 10:54:38;;;;;;;0.10;0.10;;;7.10;99.90;;;;;;4951435;28;20063;-89
2023/04/02 10:57:25;;;;;;;0.10;0.10;;;7.00;99.90;;;;;;4963742;28;20062;-90
2023/04/02 11:00:15;;;;;;;0.10;0.10;;;7.00;99.90;;;;;;4949892;29;20023;-89
2023/04/02 11:03:08;;;;;;;0.10;0.10;;;7.30;99.80;;;;;;4968176;28;20023;-89
2023/04/02 11:05:39;;;;;;;0.10;0.10;;;;;;;;;;4952114;28;20038;-89
2023/04/02 11:08:17;;;;;;;0.10;0.10;;;7.60;99.90;;;;;;4964123;28;20040;-90
2023/04/02 11:10:55;;;;;;;0.10;0.10;;;7.70;99.80;;;;;;4953173;28;20086;-89
2023/04/02 11:13:28;;;;;;;0.10;0.10;;;7.70;98.00;;;;;;4956583;28;20041;-89
2023/04/02 11:15:54;;;;;;;0.10;0.10;;;;;;;;;;4952594;28;20031;-90
2023/04/02 11:18:34;;;;;;;0.10;0.10;;;7.70;97.80;;;;;;4955215;29;20031;-92
2023/04/02 11:21:02;;;;;;;0.10;0.10;;;7.90;98.70;;;;;;4952015;29;20030;-89
2023/04/02 11:23:52;;;;;;;0.10;0.10;;;8.10;98.40;;;;;;4953912;28;20032;-89
2023/04/02 11:26:28;;;;;;;0.10;0.10;;;8.20;99.20;;;;;;4970111;28;20163;-89
2023/04/02 11:29:15;;;;;;;0.10;0.10;;;8.40;98.90;;;;;;4949400;29;20043;-89
2023/04/02 11:31:43;;;;;;;0.10;0.10;;;8.30;97.00;;;;;;4946745;28;20035;-89
2023/04/02 11:34:14;;;;;;;0.10;0.10;;;8.30;98.40;;;;;;4949453;28;20118;-91
2023/04/02 11:36:49;;;;;;;0.10;0.10;;;8.10;96.80;;;;;;4953544;29;20038;-88
2023/04/02 11:39:52;;;;;;;0.10;0.10;;;7.90;98.10;;;;;;4950977;28;20027;-89
2023/04/02 11:42:18;;;;;;;0.10;0.10;;;;;;;;;;4951339;28;20020;-88
2023/04/02 11:44:44;;;;;;;0.08;0.08;;;;;;;;;;4945050;29;20046;-88
2023/04/02 11:47:17;;;;;;;0.10;0.10;;;8.10;97.80;;;;;;4953549;28;20482;-88
2023/04/02 11:50:04;;;;;;;0.10;0.10;;;8.20;97.20;;;;;;4953965;29;20031;-88
2023/04/02 11:52:46;;;;;;;0.10;0.10;;;7.50;97.20;;;;;;4951918;29;20031;-90
2023/04/02 11:55:29;;;;;;;0.10;0.10;;;8.50;96.60;;;;;;4951774;29;20031;-89
2023/04/02 11:58:21;;;;;;;0.10;0.10;;;8.60;96.00;;;;;;4955673;29;20110;-88
2023/04/02 12:01:08;;;;;;;0.10;0.10;;;8.40;95.70;;;;;;4965636;28;20078;-88
2023/04/02 12:04:06;;;;;;;0.10;0.10;;;8.40;96.20;;;;;;4953442;29;20043;-87
2023/04/02 12:07:00;;;;;;;0.10;0.10;;;8.30;96.40;;;;;;4954131;29;20038;-90
2023/04/02 12:09:46;;;;;;;0.10;0.10;;;8.10;95.80;;;;;;4951924;28;20510;-89
2023/04/02 12:12:22;;;;;;;0.10;0.10;;;8.10;96.20;;;;;;4966603;28;20031;-89
2023/04/02 12:14:51;;;;;;;0.10;0.10;;;8.00;96.60;;;;;;4950306;28;20059;-87
2023/04/02 12:17:25;;;;;;;0.13;0.13;;;8.00;96.70;;;;;;4955209;29;20319;-88
2023/04/02 12:19:54;;;;;;;0.10;0.10;;;8.10;96.60;;;;;;4968720;28;20023;-90
2023/04/02 12:22:26;;;;;;;0.10;0.10;;;8.30;96.60;;;;;;4968365;28;20320;-89
2023/04/02 12:24:55;;;;;;;0.10;0.10;;;8.70;97.70;;;;;;4948171;28;20051;-90
2023/04/02 12:27:26;;;;;;;0.10;0.10;;;9.10;96.10;;;;;;4952738;29;20047;-92
2023/04/02 12:29:52;;;;;;;0.10;0.10;;;;;;;;;;4952932;29;20679;-90
2023/04/02 12:32:27;;;;;;;0.00;0.00;;;8.80;95.20;;;;;;4952025;28;20110;-89
2023/04/02 12:34:54;;;;;;;0.10;0.10;;;8.60;95.20;;;;;;4963985;28;20430;-89
2023/04/02 12:37:30;;;;;;;0.10;0.10;;;8.30;95.00;;;;;;4950110;29;20491;-89
2023/04/02 12:40:05;;;;;;;0.10;0.10;;;9.50;95.50;;;;;;4947798;29;20039;-90
2023/04/02 12:42:35;;;;;;;0.10;0.10;;;7.70;94.90;;;;;;4951454;29;20220;-89
2023/04/02 12:45:02;;;;;;;;;;;7.50;95.90;;;;;;4948690;29;20023;-91
2023/04/02 12:47:28;;;;;;;0.10;0.10;;;;;;;;;;4946261;28;19911;-89
2023/04/02 12:49:56;;;;;;;0.10;0.10;;;8.10;95.40;;;;;;4954800;29;20121;-92
2023/04/02 12:52:27;;;;;;;0.10;0.10;;;7.90;95.60;;;;;;4948789;28;20034;-90
2023/04/02 12:54:58;;;;;;;0.10;0.10;;;8.30;94.50;;;;;;4951321;28;20118;-90
2023/04/02 12:57:24;;;;;;;0.10;0.10;;;;;;;;;;4944329;28;20060;-91
2023/04/02 12:59:54;;;;;;;0.10;0.10;;;8.50;96.00;;;;;;4943105;29;20518;-88
2023/04/02 13:02:22;;;;;;;0.10;0.10;;;8.70;95.80;;;;;;4966393;28;21926;-90
2023/04/02 13:04:50;;;;;;;0.10;0.10;;;8.80;96.00;;;;;;4950922;28;20478;-90
2023/04/02 13:07:18;;;;;;;0.10;0.10;;;8.80;95.50;;;;;;4951081;28;20386;-90
2023/04/02 13:09:53;;;;;;;0.10;0.10;;;8.80;94.50;;;;;;4949089;29;20055;-90
2023/04/02 13:12:32;;;;;;;0.10;0.10;;;8.60;94.50;;;;;;4964964;28;20115;-91
2023/04/02 13:15:00;;;;;;;0.10;0.10;;;7.50;94.20;;;;;;4968412;28;20027;-92
2023/04/02 13:17:44;;;;;;;0.10;0.10;;;8.30;94.50;;;;;;4967347;28;20061;-90
2023/04/02 13:20:33;;;;;;;0.10;0.10;;;8.20;95.00;;;;;;4962242;28;20079;-90
2023/04/02 13:23:01;;;;;;;0.10;0.10;;;8.20;95.30;;;;;;4961648;28;20078;-91
2023/04/02 13:25:35;;;;;;;0.10;0.10;;;8.40;96.00;;;;;;4947521;28;20024;-90
2023/04/02 13:28:01;;;;;;;0.10;0.10;;;;;;;;;;4959845;28;20027;-89
2023/04/02 13:30:28;;;;;;;0.10;0.10;;;8.50;94.30;;;;;;4936408;28;20023;-90
2023/04/02 13:32:55;;;;;;;0.10;0.10;;;8.50;94.30;;;;;;4949780;28;20099;-89
2023/04/02 13:35:21;;;;;;;0.10;0.10;;;;;;;;;;4943848;28;20032;-90
2023/04/02 13:37:47;;;;;;;0.00;0.00;;;;;;;;;;4948605;29;20395;-90
2023/04/02 13:40:15;;;;;;;0.10;0.10;;;;;;;;;;4948844;29;20027;-90
2023/04/02 13:42:42;;;;;;;0.10;0.10;;;8.60;94.10;;;;;;4949045;28;20038;-92
2023/04/02 13:45:38;;;;;;;0.10;0.10;;;8.70;94.20;;;;;;4944621;29;20031;-89
2023/04/02 13:48:04;;;;;;;0.10;0.10;;;8.60;94.80;;;;;;4942877;29;20118;-91
2023/04/02 13:50:32;;;;;;;0.10;0.10;;;8.70;94.10;;;;;;4951081;28;20490;-90
2023/04/02 13:53:03;;;;;;;0.10;0.10;;;8.80;93.70;;;;;;4946983;28;20502;-90
2023/04/02 13:55:34;;;;;;;0.10;0.10;;;9.00;93.40;;;;;;4947689;29;20027;-90
2023/04/02 13:58:00;;;;;;;0.10;0.10;;;;;;;;;;4952250;28;20039;-91
2023/04/02 14:00:26;;;;;;;0.10;0.10;;;;;;;;;;4950583;28;20039;-90
2023/04/02 14:02:57;;;;;;;0.10;0.10;;;9.20;93.10;;;;;;4952319;28;20046;-89
2023/04/02 14:05:23;;;;;;;0.10;0.10;;;;;;;;;;4951660;28;20051;-89
2023/04/02 14:07:59;;;;;;;0.10;0.10;;;9.50;93.00;;;;;;4956355;28;20031;-90
2023/04/02 14:10:34;;;;;;;0.00;0.00;;;9.60;93.30;;;;;;4949488;29;20034;-94
2023/04/02 14:13:21;;;;;;;0.10;0.10;;;9.60;94.10;;;;;;4955270;28;20027;-90
2023/04/02 14:16:32;;;;;;;0.00;0.00;;;10.00;94.40;;;;;;4948834;29;20054;-90
2023/04/02 14:19:19;;;;;;;0.00;0.00;;;9.70;92.90;;;;;;4948610;29;20409;-93
2023/04/02 14:22:06;;;;;;;0.10;0.10;;;9.90;93.60;;;;;;4953071;28;20038;-91
2023/04/02 14:24:55;;;;;;;0.10;0.10;;;9.80;92.30;;;;;;4949357;28;20389;-93
2023/04/02 14:27:50;;;;;;;0.08;0.08;;;9.90;92.10;;;;;;4966511;28;20557;-90
2023/04/02 14:30:16;;;;;;;0.00;0.00;;;;;;;;;;4945795;29;20401;-90
2023/04/02 14:33:11;;;;;;;0.10;0.10;;;10.00;92.00;;;;;;4954678;28;20039;-90
2023/04/02 14:35:42;;;;;;;0.10;0.10;;;10.00;92.70;;;;;;4951000;29;20090;-89
2023/04/02 14:38:17;;;;;;;0.10;0.10;;;10.00;92.00;;;;;;4955127;28;20414;-90
2023/04/02 14:40:48;;;;;;;0.10;0.10;;;10.00;92.20;;;;;;4972412;28;20031;-90
2023/04/02 14:43:38;;;;;;;0.10;0.10;;;9.70;92.40;;;;;;4962080;28;20027;-89